Time,TemperatureF,DewpointF,PressureIn,WindDirection,WindDirectionDegrees,WindSpeedMPH,WindSpeedGustMPH,Humidity,HourlyPrecipIn,Conditions,Clouds,dailyrainin,SolarRadiationWatts/m^2,SoftwareType,DateUTC
2013-01-24 00:03:00,24.0,10.0,-100.00,ENE,68,4.0,10.0,54,0.00,,,0.00,0.000000,,2013-01-24 05:03:00,
2013-01-24 00:12:00,24.0,10.0,-100.00,ENE,68,4.0,10.0,54,0.00,,,0.00,0.000000,,2013-01-24 05:12:00,
2013-01-24 00:22:00,24.0,10.0,-100.00,ENE,68,4.0,10.0,54,0.00,,,0.00,0.000000,,2013-01-24 05:22:00,
2013-01-24 00:53:00,23.0,8.0,-100.00,NE,35,3.0,9.0,51,0.00,,,0.00,0.000000,,2013-01-24 05:53:00,
2013-01-24 01:03:00,23.0,8.0,-100.00,NE,35,3.0,9.0,51,0.00,,,0.00,0.000000,,2013-01-24 06:03:00,
2013-01-24 01:12:00,23.0,8.0,-100.00,NE,35,3.0,9.0,51,0.00,,,0.00,0.000000,,2013-01-24 06:12:00,
2013-01-24 01:22:00,23.0,8.0,-100.00,NE,35,3.0,9.0,51,0.00,,,0.00,0.000000,,2013-01-24 06:22:00,
2013-01-24 01:53:00,21.0,13.0,-100.00,ENE,68,5.0,11.0,71,0.00,,,0.00,0.000000,,2013-01-24 06:53:00,
2013-01-24 02:03:00,21.0,13.0,-100.00,ENE,68,5.0,11.0,71,0.00,,,0.00,0.000000,,2013-01-24 07:03:00,
2013-01-24 02:12:00,21.0,13.0,-100.00,ENE,68,5.0,11.0,71,0.00,,,0.00,0.000000,,2013-01-24 07:12:00,
2013-01-24 02:23:00,21.0,13.0,-100.00,ENE,68,5.0,11.0,71,0.00,,,0.00,0.000000,,2013-01-24 07:23:00,
2013-01-24 02:53:00,20.0,12.0,-100.00,ENE,68,4.0,11.0,71,0.00,,,0.00,0.000000,,2013-01-24 07:53:00,
2013-01-24 03:03:00,20.0,12.0,-100.00,ENE,68,4.0,11.0,71,0.00,,,0.00,0.000000,,2013-01-24 08:03:00,
2013-01-24 03:13:00,20.0,12.0,-100.00,ENE,68,4.0,11.0,71,0.00,,,0.00,0.000000,,2013-01-24 08:13:00,
2013-01-24 03:23:00,20.0,12.0,-100.00,ENE,68,4.0,11.0,71,0.00,,,0.00,0.000000,,2013-01-24 08:23:00,
2013-01-24 03:53:00,19.0,15.0,-100.00,ENE,68,6.0,11.0,84,0.00,,,0.00,0.000000,,2013-01-24 08:53:00,
2013-01-24 04:03:00,19.0,15.0,-100.00,ENE,68,6.0,11.0,84,0.00,,,0.00,0.000000,,2013-01-24 09:03:00,
2013-01-24 04:13:00,19.0,15.0,-100.00,ENE,68,6.0,11.0,84,0.00,,,0.00,0.000000,,2013-01-24 09:13:00,
2013-01-24 04:23:00,19.0,15.0,-100.00,ENE,68,6.0,11.0,84,0.00,,,0.00,0.000000,,2013-01-24 09:23:00,
2013-01-24 04:53:00,19.0,16.0,-100.00,ENE,68,7.0,15.0,88,0.00,,,0.00,0.000000,,2013-01-24 09:53:00,
2013-01-24 05:03:00,19.0,16.0,-100.00,ENE,68,7.0,15.0,88,0.00,,,0.00,0.000000,,2013-01-24 10:03:00,
2013-01-24 05:12:00,19.0,16.0,-100.00,ENE,68,7.0,15.0,88,0.00,,,0.00,0.000000,,2013-01-24 10:12:00,
2013-01-24 05:23:00,19.0,16.0,-100.00,ENE,68,7.0,15.0,88,0.00,,,0.00,0.000000,,2013-01-24 10:23:00,
2013-01-24 05:53:00,19.0,15.0,-100.00,ENE,59,3.0,11.0,84,0.00,,,0.00,0.000000,,2013-01-24 10:53:00,
2013-01-24 06:03:00,19.0,15.0,-100.00,ENE,59,3.0,11.0,84,0.00,,,0.00,0.000000,,2013-01-24 11:03:00,
2013-01-24 06:12:00,19.0,15.0,-100.00,ENE,59,3.0,11.0,84,0.00,,,0.00,0.000000,,2013-01-24 11:12:00,
2013-01-24 06:23:00,19.0,15.0,-100.00,ENE,59,3.0,11.0,84,0.00,,,0.00,0.000000,,2013-01-24 11:23:00,
2013-01-24 06:53:00,19.0,13.0,-100.00,NNE,13,0.0,9.0,76,0.00,,,0.00,0.000000,,2013-01-24 11:53:00,
2013-01-24 07:03:00,19.0,13.0,-100.00,NNE,13,0.0,9.0,76,0.00,,,0.00,0.000000,,2013-01-24 12:03:00,
2013-01-24 07:12:00,19.0,13.0,-100.00,NNE,13,0.0,9.0,76,0.00,,,0.00,0.000000,,2013-01-24 12:12:00,
2013-01-24 07:23:00,19.0,13.0,-100.00,NNE,13,0.0,9.0,76,0.00,,,0.00,0.000000,,2013-01-24 12:23:00,
2013-01-24 07:53:00,19.0,10.0,-100.00,North,356,0.0,0.0,67,0.00,,,0.00,1.000000,,2013-01-24 12:53:00,
2013-01-24 08:03:00,19.0,10.0,-100.00,North,356,0.0,0.0,67,0.00,,,0.00,1.000000,,2013-01-24 13:03:00,
2013-01-24 08:13:00,19.0,10.0,-100.00,North,356,0.0,0.0,67,0.00,,,0.00,1.000000,,2013-01-24 13:13:00,
2013-01-24 08:23:00,19.0,10.0,-100.00,North,356,0.0,0.0,67,0.00,,,0.00,1.000000,,2013-01-24 13:23:00,
2013-01-24 08:53:00,20.0,9.0,-100.00,North,0,0.0,0.0,62,0.00,,,0.00,50.000000,,2013-01-24 13:53:00,
2013-01-24 09:03:00,20.0,9.0,-100.00,North,0,0.0,0.0,62,0.00,,,0.00,50.000000,,2013-01-24 14:03:00,
2013-01-24 09:12:00,20.0,9.0,-100.00,North,0,0.0,0.0,62,0.00,,,0.00,50.000000,,2013-01-24 14:12:00,
2013-01-24 09:23:00,20.0,9.0,-100.00,North,0,0.0,0.0,62,0.00,,,0.00,50.000000,,2013-01-24 14:23:00,
2013-01-24 09:54:00,21.0,8.0,-100.00,North,355,0.0,0.0,56,0.00,,,0.00,156.000000,,2013-01-24 14:54:00,
2013-01-24 10:04:00,21.0,8.0,-100.00,North,355,0.0,0.0,56,0.00,,,0.00,156.000000,,2013-01-24 15:04:00,
2013-01-24 10:13:00,21.0,8.0,-100.00,North,355,0.0,0.0,56,0.00,,,0.00,156.000000,,2013-01-24 15:13:00,
2013-01-24 10:23:00,21.0,8.0,-100.00,North,355,0.0,0.0,56,0.00,,,0.00,156.000000,,2013-01-24 15:23:00,
2013-01-24 10:53:00,24.0,7.0,-100.00,NNW,339,8.0,18.0,47,0.00,,,0.00,320.000000,,2013-01-24 15:53:00,
2013-01-24 11:04:00,24.0,7.0,-100.00,NNW,339,8.0,18.0,47,0.00,,,0.00,320.000000,,2013-01-24 16:04:00,
2013-01-24 11:12:00,24.0,7.0,-100.00,NNW,339,8.0,18.0,47,0.00,,,0.00,320.000000,,2013-01-24 16:12:00,
2013-01-24 11:23:00,24.0,7.0,-100.00,NNW,339,8.0,18.0,47,0.00,,,0.00,320.000000,,2013-01-24 16:23:00,
2013-01-24 12:03:00,25.0,8.0,-100.00,NNW,332,8.0,17.0,48,0.00,,,0.00,480.000000,,2013-01-24 17:03:00,
2013-01-24 12:12:00,25.0,8.0,-100.00,NNW,332,8.0,17.0,48,0.00,,,0.00,480.000000,,2013-01-24 17:12:00,
2013-01-24 12:22:00,25.0,8.0,-100.00,NNW,332,8.0,17.0,48,0.00,,,0.00,480.000000,,2013-01-24 17:22:00,
2013-01-24 12:53:00,25.0,6.0,-100.00,NW,325,8.0,20.0,44,0.00,,,0.00,418.000000,,2013-01-24 17:53:00,
2013-01-24 13:03:00,25.0,6.0,-100.00,NW,325,8.0,20.0,44,0.00,,,0.00,418.000000,,2013-01-24 18:03:00,
2013-01-24 13:12:00,25.0,6.0,-100.00,NW,325,8.0,20.0,44,0.00,,,0.00,418.000000,,2013-01-24 18:12:00,
2013-01-24 13:23:00,25.0,6.0,-100.00,NW,325,8.0,20.0,44,0.00,,,0.00,418.000000,,2013-01-24 18:23:00,
2013-01-24 13:53:00,26.0,6.0,-100.00,NW,309,11.0,22.0,42,0.00,,,0.00,363.000000,,2013-01-24 18:53:00,
2013-01-24 14:02:00,26.0,6.0,-100.00,NW,309,11.0,22.0,42,0.00,,,0.00,363.000000,,2013-01-24 19:02:00,
2013-01-24 14:13:00,26.0,6.0,-100.00,NW,309,11.0,22.0,42,0.00,,,0.00,363.000000,,2013-01-24 19:13:00,
2013-01-24 14:22:00,26.0,6.0,-100.00,NW,309,11.0,22.0,42,0.00,,,0.00,363.000000,,2013-01-24 19:22:00,
2013-01-24 14:53:00,26.0,7.0,-100.00,NW,312,8.0,24.0,44,0.00,,,0.00,383.000000,,2013-01-24 19:53:00,
2013-01-24 15:03:00,26.0,7.0,-100.00,NW,312,8.0,24.0,44,0.00,,,0.00,383.000000,,2013-01-24 20:03:00,
2013-01-24 15:12:00,26.0,7.0,-100.00,NW,312,8.0,24.0,44,0.00,,,0.00,383.000000,,2013-01-24 20:12:00,
2013-01-24 15:22:00,26.0,7.0,-100.00,NW,312,8.0,24.0,44,0.00,,,0.00,383.000000,,2013-01-24 20:22:00,
2013-01-24 15:53:00,27.0,4.0,-100.00,NNW,330,7.0,23.0,37,0.00,,,0.00,305.000000,,2013-01-24 20:53:00,
2013-01-24 16:03:00,27.0,4.0,-100.00,NNW,330,7.0,23.0,37,0.00,,,0.00,305.000000,,2013-01-24 21:03:00,
2013-01-24 16:13:00,27.0,4.0,-100.00,NNW,330,7.0,23.0,37,0.00,,,0.00,305.000000,,2013-01-24 21:13:00,
2013-01-24 16:23:00,27.0,4.0,-100.00,NNW,330,7.0,23.0,37,0.00,,,0.00,305.000000,,2013-01-24 21:23:00,
2013-01-24 16:53:00,25.0,-1.0,-100.00,NW,321,9.0,20.0,32,0.00,,,0.00,176.000000,,2013-01-24 21:53:00,
2013-01-24 17:03:00,25.0,-1.0,-100.00,NW,321,9.0,20.0,32,0.00,,,0.00,176.000000,,2013-01-24 22:03:00,
2013-01-24 17:12:00,25.0,-1.0,-100.00,NW,321,9.0,20.0,32,0.00,,,0.00,176.000000,,2013-01-24 22:12:00,
2013-01-24 17:22:00,25.0,-1.0,-100.00,NW,321,9.0,20.0,32,0.00,,,0.00,176.000000,,2013-01-24 22:22:00,
2013-01-24 17:53:00,24.0,-1.0,-100.00,NW,309,7.0,19.0,33,0.00,,,0.00,24.000000,,2013-01-24 22:53:00,
2013-01-24 18:03:00,24.0,-1.0,-100.00,NW,309,7.0,19.0,33,0.00,,,0.00,24.000000,,2013-01-24 23:03:00,
2013-01-24 18:13:00,24.0,-1.0,-100.00,NW,309,7.0,19.0,33,0.00,,,0.00,24.000000,,2013-01-24 23:13:00,
2013-01-24 18:22:00,24.0,-1.0,-100.00,NW,309,7.0,19.0,33,0.00,,,0.00,24.000000,,2013-01-24 23:22:00,
2013-01-24 18:52:00,22.0,-1.0,-100.00,NW,310,4.0,11.0,35,0.00,,,0.00,0.000000,,2013-01-24 23:52:00,
2013-01-24 19:02:00,22.0,-1.0,-100.00,NW,310,4.0,11.0,35,0.00,,,0.00,0.000000,,2013-01-25 00:02:00,
2013-01-24 19:12:00,22.0,-1.0,-100.00,NW,310,4.0,11.0,35,0.00,,,0.00,0.000000,,2013-01-25 00:12:00,
2013-01-24 19:22:00,22.0,-1.0,-100.00,NW,310,4.0,11.0,35,0.00,,,0.00,0.000000,,2013-01-25 00:22:00,
2013-01-24 19:53:00,20.0,0.0,-100.00,West,268,4.0,8.0,40,0.00,,,0.00,0.000000,,2013-01-25 00:53:00,
2013-01-24 20:02:00,20.0,0.0,-100.00,West,268,4.0,8.0,40,0.00,,,0.00,0.000000,,2013-01-25 01:02:00,
2013-01-24 20:13:00,20.0,0.0,-100.00,West,268,4.0,8.0,40,0.00,,,0.00,0.000000,,2013-01-25 01:13:00,
2013-01-24 20:22:00,20.0,0.0,-100.00,West,268,4.0,8.0,40,0.00,,,0.00,0.000000,,2013-01-25 01:22:00,
2013-01-24 20:52:00,18.0,1.0,-100.00,West,274,4.0,6.0,46,0.00,,,0.00,0.000000,,2013-01-25 01:52:00,
2013-01-24 21:03:00,18.0,1.0,-100.00,West,274,4.0,6.0,46,0.00,,,0.00,0.000000,,2013-01-25 02:03:00,
2013-01-24 21:12:00,18.0,1.0,-100.00,West,274,4.0,6.0,46,0.00,,,0.00,0.000000,,2013-01-25 02:12:00,
2013-01-24 21:22:00,18.0,1.0,-100.00,West,274,4.0,6.0,46,0.00,,,0.00,0.000000,,2013-01-25 02:22:00,
2013-01-24 21:53:00,18.0,2.0,-100.00,West,260,4.0,8.0,48,0.00,,,0.00,0.000000,,2013-01-25 02:53:00,
2013-01-24 22:02:00,18.0,2.0,-100.00,West,260,4.0,8.0,48,0.00,,,0.00,0.000000,,2013-01-25 03:02:00,
2013-01-24 22:12:00,18.0,2.0,-100.00,West,260,4.0,8.0,48,0.00,,,0.00,0.000000,,2013-01-25 03:12:00,
2013-01-24 22:22:00,18.0,2.0,-100.00,West,260,4.0,8.0,48,0.00,,,0.00,0.000000,,2013-01-25 03:22:00,
2013-01-24 22:53:00,20.0,2.0,-100.00,WNW,291,7.0,10.0,44,0.00,,,0.00,0.000000,,2013-01-25 03:53:00,
2013-01-24 23:02:00,20.0,2.0,-100.00,WNW,291,7.0,10.0,44,0.00,,,0.00,0.000000,,2013-01-25 04:02:00,
2013-01-24 23:12:00,20.0,2.0,-100.00,WNW,291,7.0,10.0,44,0.00,,,0.00,0.000000,,2013-01-25 04:12:00,
2013-01-24 23:22:00,20.0,2.0,-100.00,WNW,291,7.0,10.0,44,0.00,,,0.00,0.000000,,2013-01-25 04:22:00,
2013-01-24 23:52:00,18.0,2.0,-100.00,West,266,4.0,9.0,48,0.00,,,0.00,0.000000,,2013-01-25 04:52:00,